Climatologie pour Saint-Brevin les Pins
Jour • Résumé pour janvier 04, 2018 Système :  Mixte    Anglais   Métrique
« - 1 jour
+ 1 jour »
Jour Semaine Mois Année Personnalisé
  Maximum : Minimum : Moyenne :
Température sous abri : TemperatureC °F /  -17.8 °C 10.2 °F /  -12.1 °C 11.9 °F /  -11.2 °C
Point de rosée : DewpointC °F /  -17.8 °C 9.6 °F /  -12.4 °C 11.4 °F /  -11.4 °C
Humidité : Humidity % 94 % 96 %
Vitesse du vent : WindSpeedKMH mph /  0 km/h - 16.2 mph /  26.1 km/h
Rafale : WindSpeedGustKMH mph /  0 km/h - -
Direction :- - West
Pression : PressurehPa in /  0 hPa 1005.3 in /  34039.5 hPa -
Précipitations : 2.5 in /  63.5 mm    
Historical Graphs
 
 
Tableau de données pour janvier 04, 2018
Heure Tempé Pt rosée Pression Vent Vitesse Rafale Humidité Taux pluie (/hr) Soleil
TemperatureC °F /  -17.8 °C DewpointC °F /  -17.8 °C PressurehPa in /  0 hPa Calm     Humidity % HourlyPrecipMM in /  0 mm SolarRadiationWatts/m^2 W/m2 Conditions
00:00 12.5 °F /  -10.8 °C 12.2 °F /  -11 °C 1011.1 in /  34235.8 hPa NW 11.3 mph /  18.2 km/h 45.1 mph /  72.6 km/h 98 % 0.0 in /  0 mm 0 W/m2
00:10 12.5 °F /  -10.8 °C 12.2 °F /  -11 °C 1011.1 in /  34235.8 hPa WSW 11.3 mph /  18.2 km/h 38.6 mph /  62.1 km/h 98 % 0.3 in /  7.62 mm 0 W/m2
00:15 12.5 °F /  -10.8 °C 12.2 °F /  -11 °C 1011.1 in /  34235.8 hPa West 30.6 mph /  49.2 km/h 38.6 mph /  62.1 km/h 98 % 0.3 in /  7.62 mm 0 W/m2
00:20 12.5 °F /  -10.8 °C 12.0 °F /  -11.1 °C 1010.7 in /  34222.3 hPa West 24.1 mph /  38.8 km/h 37.0 mph /  59.5 km/h 97 % 0.3 in /  7.62 mm 0 W/m2
00:25 12.5 °F /  -10.8 °C 12.0 °F /  -11.1 °C 1010.7 in /  34222.3 hPa WNW 25.7 mph /  41.4 km/h 38.6 mph /  62.1 km/h 97 % 0.3 in /  7.62 mm 0 W/m2
00:30 12.5 °F /  -10.8 °C 12.2 °F /  -11 °C 1010.7 in /  34222.3 hPa WNW 16.1 mph /  25.9 km/h 38.6 mph /  62.1 km/h 98 % 0.3 in /  7.62 mm 0 W/m2
00:35 12.5 °F /  -10.8 °C 12.0 °F /  -11.1 °C 1010.7 in /  34222.3 hPa West 20.9 mph /  33.6 km/h 38.6 mph /  62.1 km/h 97 % 0.3 in /  7.62 mm 0 W/m2
00:40 12.5 °F /  -10.8 °C 12.2 °F /  -11 °C 1010.7 in /  34222.3 hPa NW 29.0 mph /  46.7 km/h 49.9 mph /  80.3 km/h 98 % 0.3 in /  7.62 mm 0 W/m2
00:45 12.5 °F /  -10.8 °C 12.0 °F /  -11.1 °C 1010.7 in /  34222.3 hPa WSW 29.0 mph /  46.7 km/h 49.9 mph /  80.3 km/h 97 % 0.3 in /  7.62 mm 0 W/m2
00:50 12.6 °F /  -10.8 °C 12.1 °F /  -11.1 °C 1010.7 in /  34222.3 hPa WNW 12.9 mph /  20.8 km/h 41.8 mph /  67.3 km/h 97 % 0.3 in /  7.62 mm 0 W/m2
00:55 12.6 °F /  -10.8 °C 12.2 °F /  -11 °C 1010.7 in /  34222.3 hPa WNW 12.9 mph /  20.8 km/h 40.2 mph /  64.7 km/h 98 % 0.3 in /  7.62 mm 0 W/m2
01:00 12.6 °F /  -10.8 °C 12.1 °F /  -11.1 °C 1010.7 in /  34222.3 hPa West 20.9 mph /  33.6 km/h 37.0 mph /  59.5 km/h 97 % 0.3 in /  7.62 mm 0 W/m2
01:05 12.5 °F /  -10.8 °C 12.0 °F /  -11.1 °C 1010.7 in /  34222.3 hPa WNW 14.5 mph /  23.3 km/h 41.8 mph /  67.3 km/h 97 % 0.3 in /  7.62 mm 0 W/m2
01:10 12.5 °F /  -10.8 °C 12.0 °F /  -11.1 °C 1010.7 in /  34222.3 hPa WNW 8.0 mph /  12.9 km/h 41.8 mph /  67.3 km/h 97 % 0.0 in /  0 mm 0 W/m2
01:15 12.5 °F /  -10.8 °C 12.0 °F /  -11.1 °C 1010.7 in /  34222.3 hPa WNW 29.0 mph /  46.7 km/h 41.8 mph /  67.3 km/h 97 % 0.0 in /  0 mm 0 W/m2
01:20 12.5 °F /  -10.8 °C 12.0 °F /  -11.1 °C 1010.7 in /  34222.3 hPa WNW 24.1 mph /  38.8 km/h 41.8 mph /  67.3 km/h 97 % 0.0 in /  0 mm 0 W/m2
01:25 12.5 °F /  -10.8 °C 12.0 °F /  -11.1 °C 1010.7 in /  34222.3 hPa NW 11.3 mph /  18.2 km/h 41.8 mph /  67.3 km/h 97 % 0.0 in /  0 mm 0 W/m2
01:30 12.5 °F /  -10.8 °C 12.0 °F /  -11.1 °C 1010.7 in /  34222.3 hPa NW 16.1 mph /  25.9 km/h 45.1 mph /  72.6 km/h 97 % 0.0 in /  0 mm 0 W/m2
01:35 12.5 °F /  -10.8 °C 12.0 °F /  -11.1 °C 1010.7 in /  34222.3 hPa NW 19.3 mph /  31.1 km/h 53.1 mph /  85.5 km/h 97 % 0.0 in /  0 mm 0 W/m2
01:40 12.5 °F /  -10.8 °C 12.0 °F /  -11.1 °C 1010.7 in /  34222.3 hPa West 17.7 mph /  28.5 km/h 53.1 mph /  85.5 km/h 97 % 0.0 in /  0 mm 0 W/m2
01:45 12.5 °F /  -10.8 °C 12.0 °F /  -11.1 °C 1010.7 in /  34222.3 hPa West 24.1 mph /  38.8 km/h 48.3 mph /  77.7 km/h 97 % 0.0 in /  0 mm 0 W/m2
01:50 12.4 °F /  -10.9 °C 12.0 °F /  -11.1 °C 1010.7 in /  34222.3 hPa NW 19.3 mph /  31.1 km/h 48.3 mph /  77.7 km/h 97 % 0.0 in /  0 mm 0 W/m2
02:00 12.4 °F /  -10.9 °C 12.0 °F /  -11.1 °C 1010.7 in /  34222.3 hPa WSW 24.1 mph /  38.8 km/h 38.6 mph /  62.1 km/h 97 % 0.0 in /  0 mm 0 W/m2
02:05 12.4 °F /  -10.9 °C 12.0 °F /  -11.1 °C 1010.7 in /  34222.3 hPa WNW 19.3 mph /  31.1 km/h 41.8 mph /  67.3 km/h 97 % 0.0 in /  0 mm 0 W/m2
02:10 12.4 °F /  -10.9 °C 12.0 °F /  -11.1 °C 1010.7 in /  34222.3 hPa West 25.7 mph /  41.4 km/h 41.8 mph /  67.3 km/h 97 % 0.0 in /  0 mm 0 W/m2
02:15 12.4 °F /  -10.9 °C 12.0 °F /  -11.1 °C 1010.7 in /  34222.3 hPa West 19.3 mph /  31.1 km/h 38.6 mph /  62.1 km/h 97 % 0.0 in /  0 mm 0 W/m2
02:20 12.4 °F /  -10.9 °C 12.0 °F /  -11.1 °C 1010.7 in /  34222.3 hPa WNW 19.3 mph /  31.1 km/h 38.6 mph /  62.1 km/h 97 % 0.0 in /  0 mm 0 W/m2
02:25 12.4 °F /  -10.9 °C 12.0 °F /  -11.1 °C 1010.7 in /  34222.3 hPa NNW 20.9 mph /  33.6 km/h 41.8 mph /  67.3 km/h 97 % 0.0 in /  0 mm 0 W/m2
02:30 12.4 °F /  -10.9 °C 12.1 °F /  -11.1 °C 1010.7 in /  34222.3 hPa WNW 32.2 mph /  51.8 km/h 43.4 mph /  69.8 km/h 98 % 0.0 in /  0 mm 0 W/m2
02:35 12.4 °F /  -10.9 °C 12.1 °F /  -11.1 °C 1010.7 in /  34222.3 hPa WNW 11.3 mph /  18.2 km/h 43.4 mph /  69.8 km/h 98 % 0.0 in /  0 mm 0 W/m2
02:40 12.4 °F /  -10.9 °C 12.0 °F /  -11.1 °C 1010.7 in /  34222.3 hPa West 32.2 mph /  51.8 km/h 37.0 mph /  59.5 km/h 97 % 0.0 in /  0 mm 0 W/m2
02:45 12.4 °F /  -10.9 °C 11.9 °F /  -11.2 °C 1010.7 in /  34222.3 hPa WSW 8.0 mph /  12.9 km/h 35.4 mph /  57 km/h 97 % 0.0 in /  0 mm 0 W/m2
02:50 12.4 °F /  -10.9 °C 12.1 °F /  -11.1 °C 1010.7 in /  34222.3 hPa NW 24.1 mph /  38.8 km/h 40.2 mph /  64.7 km/h 98 % 0.0 in /  0 mm 0 W/m2
02:55 12.4 °F /  -10.9 °C 11.9 °F /  -11.2 °C 1010.7 in /  34222.3 hPa West 12.9 mph /  20.8 km/h 40.2 mph /  64.7 km/h 97 % 0.0 in /  0 mm 0 W/m2
03:00 12.4 °F /  -10.9 °C 12.1 °F /  -11.1 °C 1010.7 in /  34222.3 hPa NW 14.5 mph /  23.3 km/h 38.6 mph /  62.1 km/h 98 % 0.0 in /  0 mm 0 W/m2
03:05 12.4 °F /  -10.9 °C 12.1 °F /  -11.1 °C 1010.7 in /  34222.3 hPa West 17.7 mph /  28.5 km/h 45.1 mph /  72.6 km/h 98 % 0.0 in /  0 mm 0 W/m2
03:10 12.4 °F /  -10.9 °C 12.1 °F /  -11.1 °C 1010.7 in /  34222.3 hPa NW 16.1 mph /  25.9 km/h 45.1 mph /  72.6 km/h 98 % 0.0 in /  0 mm 0 W/m2
03:20 12.4 °F /  -10.9 °C 12.1 °F /  -11.1 °C 1011.1 in /  34235.8 hPa SW 6.4 mph /  10.3 km/h 40.2 mph /  64.7 km/h 98 % 0.0 in /  0 mm 0 W/m2
03:25 12.4 °F /  -10.9 °C 12.1 °F /  -11.1 °C 1010.7 in /  34222.3 hPa WSW 32.2 mph /  51.8 km/h 41.8 mph /  67.3 km/h 98 % 0.0 in /  0 mm 0 W/m2
03:30 12.4 °F /  -10.9 °C 12.1 °F /  -11.1 °C 1011.1 in /  34235.8 hPa West 20.9 mph /  33.6 km/h 41.8 mph /  67.3 km/h 98 % 0.0 in /  0 mm 0 W/m2
03:35 12.4 °F /  -10.9 °C 12.1 °F /  -11.1 °C 1011.1 in /  34235.8 hPa WNW 20.9 mph /  33.6 km/h 41.8 mph /  67.3 km/h 98 % 0.0 in /  0 mm 0 W/m2
03:40 12.4 °F /  -10.9 °C 12.1 °F /  -11.1 °C 1011.1 in /  34235.8 hPa West 16.1 mph /  25.9 km/h 41.8 mph /  67.3 km/h 98 % 0.0 in /  0 mm 0 W/m2
03:45 12.4 °F /  -10.9 °C 12.1 °F /  -11.1 °C 1011.1 in /  34235.8 hPa NW 16.1 mph /  25.9 km/h 40.2 mph /  64.7 km/h 98 % 0.0 in /  0 mm 0 W/m2
03:50 12.4 °F /  -10.9 °C 12.1 °F /  -11.1 °C 1011.1 in /  34235.8 hPa West 27.4 mph /  44.1 km/h 43.4 mph /  69.8 km/h 98 % 0.0 in /  0 mm 0 W/m2
04:00 12.3 °F /  -10.9 °C 12.0 °F /  -11.1 °C 1010.7 in /  34222.3 hPa WNW 14.5 mph /  23.3 km/h 40.2 mph /  64.7 km/h 98 % 0.0 in /  0 mm 0 W/m2
04:05 12.3 °F /  -10.9 °C 12.0 °F /  -11.1 °C 1011.1 in /  34235.8 hPa WNW 35.4 mph /  57 km/h 40.2 mph /  64.7 km/h 98 % 0.0 in /  0 mm 0 W/m2
04:10 12.3 °F /  -10.9 °C 12.0 °F /  -11.1 °C 1010.7 in /  34222.3 hPa West 51.5 mph /  82.9 km/h 51.5 mph /  82.9 km/h 98 % 0.0 in /  0 mm 0 W/m2
04:20 12.3 °F /  -10.9 °C 12.0 °F /  -11.1 °C 1010.7 in /  34222.3 hPa SW 9.7 mph /  15.6 km/h 45.1 mph /  72.6 km/h 98 % 0.0 in /  0 mm 0 W/m2
04:25 12.3 °F /  -10.9 °C 12.0 °F /  -11.1 °C 1010.7 in /  34222.3 hPa NW 11.3 mph /  18.2 km/h 38.6 mph /  62.1 km/h 98 % 0.0 in /  0 mm 0 W/m2
04:30 12.3 °F /  -10.9 °C 12.0 °F /  -11.1 °C 1010.7 in /  34222.3 hPa WNW 22.5 mph /  36.2 km/h 38.6 mph /  62.1 km/h 98 % 0.0 in /  0 mm 0 W/m2
04:35 12.3 °F /  -10.9 °C 12.0 °F /  -11.1 °C 1010.7 in /  34222.3 hPa West 24.1 mph /  38.8 km/h 40.2 mph /  64.7 km/h 98 % 0.0 in /  0 mm 0 W/m2
04:40 12.2 °F /  -11 °C 11.9 °F /  -11.2 °C 1010.7 in /  34222.3 hPa West 16.1 mph /  25.9 km/h 40.2 mph /  64.7 km/h 98 % 0.0 in /  0 mm 0 W/m2
04:45 12.2 °F /  -11 °C 11.9 °F /  -11.2 °C 1010.7 in /  34222.3 hPa WSW 12.9 mph /  20.8 km/h 38.6 mph /  62.1 km/h 98 % 0.0 in /  0 mm 0 W/m2
04:50 12.2 °F /  -11 °C 11.9 °F /  -11.2 °C 1010.7 in /  34222.3 hPa WSW 20.9 mph /  33.6 km/h 38.6 mph /  62.1 km/h 98 % 0.0 in /  0 mm 0 W/m2
04:55 12.2 °F /  -11 °C 11.7 °F /  -11.3 °C 1010.7 in /  34222.3 hPa West 19.3 mph /  31.1 km/h 35.4 mph /  57 km/h 97 % 0.0 in /  0 mm 0 W/m2
05:00 12.2 °F /  -11 °C 11.9 °F /  -11.2 °C 1010.7 in /  34222.3 hPa WNW 8.0 mph /  12.9 km/h 45.1 mph /  72.6 km/h 98 % 0.0 in /  0 mm 0 W/m2
05:05 12.2 °F /  -11 °C 11.9 °F /  -11.2 °C 1010.7 in /  34222.3 hPa WNW 9.7 mph /  15.6 km/h 45.1 mph /  72.6 km/h 98 % 0.0 in /  0 mm 0 W/m2
05:15 12.2 °F /  -11 °C 11.9 °F /  -11.2 °C 1010.7 in /  34222.3 hPa West 24.1 mph /  38.8 km/h 40.2 mph /  64.7 km/h 98 % 0.0 in /  0 mm 0 W/m2
05:25 12.2 °F /  -11 °C 11.9 °F /  -11.2 °C 1010.7 in /  34222.3 hPa West 20.9 mph /  33.6 km/h 35.4 mph /  57 km/h 98 % 0.0 in /  0 mm 0 W/m2
05:35 12.2 °F /  -11 °C 11.9 °F /  -11.2 °C 1010.7 in /  34222.3 hPa NNW 9.7 mph /  15.6 km/h 38.6 mph /  62.1 km/h 98 % 0.0 in /  0 mm 0 W/m2
05:50 12.2 °F /  -11 °C 11.9 °F /  -11.2 °C 1010.7 in /  34222.3 hPa WNW 14.5 mph /  23.3 km/h 43.4 mph /  69.8 km/h 98 % 0.0 in /  0 mm 0 W/m2
05:55 12.2 °F /  -11 °C 11.9 °F /  -11.2 °C 1010.7 in /  34222.3 hPa NW 16.1 mph /  25.9 km/h 43.4 mph /  69.8 km/h 98 % 0.0 in /  0 mm 0 W/m2
06:00 12.2 °F /  -11 °C 11.9 °F /  -11.2 °C 1010.7 in /  34222.3 hPa WSW 12.9 mph /  20.8 km/h 33.8 mph /  54.4 km/h 98 % 0.0 in /  0 mm 0 W/m2
06:05 12.2 °F /  -11 °C 11.9 °F /  -11.2 °C 1010.7 in /  34222.3 hPa West 20.9 mph /  33.6 km/h 33.8 mph /  54.4 km/h 98 % 0.0 in /  0 mm 0 W/m2
06:10 12.2 °F /  -11 °C 11.9 °F /  -11.2 °C 1010.4 in /  34212.1 hPa WSW 9.7 mph /  15.6 km/h 30.6 mph /  49.2 km/h 98 % 0.0 in /  0 mm 0 W/m2
06:15 12.2 °F /  -11 °C 11.7 °F /  -11.3 °C 1010.4 in /  34212.1 hPa West 32.2 mph /  51.8 km/h 33.8 mph /  54.4 km/h 97 % 0.0 in /  0 mm 0 W/m2
06:25 12.2 °F /  -11 °C 11.7 °F /  -11.3 °C 1010.4 in /  34212.1 hPa WNW 14.5 mph /  23.3 km/h 32.2 mph /  51.8 km/h 97 % 0.0 in /  0 mm 0 W/m2
06:35 12.2 °F /  -11 °C 11.7 °F /  -11.3 °C 1010.4 in /  34212.1 hPa WNW 24.1 mph /  38.8 km/h 32.2 mph /  51.8 km/h 97 % 0.0 in /  0 mm 0 W/m2
06:40 12.2 °F /  -11 °C 11.7 °F /  -11.3 °C 1010.4 in /  34212.1 hPa West 12.9 mph /  20.8 km/h 32.2 mph /  51.8 km/h 97 % 0.0 in /  0 mm 0 W/m2
06:45 12.2 °F /  -11 °C 11.7 °F /  -11.3 °C 1010.4 in /  34212.1 hPa West 17.7 mph /  28.5 km/h 30.6 mph /  49.2 km/h 97 % 0.0 in /  0 mm 0 W/m2
06:50 12.1 °F /  -11.1 °C 11.6 °F /  -11.3 °C 1010.4 in /  34212.1 hPa West 17.7 mph /  28.5 km/h 30.6 mph /  49.2 km/h 97 % 0.0 in /  0 mm 0 W/m2
06:55 12.2 °F /  -11 °C 11.7 °F /  -11.3 °C 1010.4 in /  34212.1 hPa WNW 12.9 mph /  20.8 km/h 46.7 mph /  75.2 km/h 97 % 0.0 in /  0 mm 0 W/m2
07:05 12.2 °F /  -11 °C 11.8 °F /  -11.2 °C 1010.0 in /  34198.6 hPa SW 24.1 mph /  38.8 km/h 40.2 mph /  64.7 km/h 97 % 0.3 in /  7.62 mm 0 W/m2
07:10 12.2 °F /  -11 °C 11.9 °F /  -11.2 °C 1010.4 in /  34212.1 hPa WNW 16.1 mph /  25.9 km/h 38.6 mph /  62.1 km/h 98 % 0.3 in /  7.62 mm 0 W/m2
07:15 12.2 °F /  -11 °C 11.7 °F /  -11.3 °C 1010.4 in /  34212.1 hPa WNW 22.5 mph /  36.2 km/h 38.6 mph /  62.1 km/h 97 % 0.3 in /  7.62 mm 0 W/m2
07:20 12.2 °F /  -11 °C 11.8 °F /  -11.2 °C 1010.0 in /  34198.6 hPa NW 14.5 mph /  23.3 km/h 38.6 mph /  62.1 km/h 97 % 0.3 in /  7.62 mm 0 W/m2
07:25 12.2 °F /  -11 °C 11.9 °F /  -11.2 °C 1010.0 in /  34198.6 hPa WNW 16.1 mph /  25.9 km/h 35.4 mph /  57 km/h 98 % 0.3 in /  7.62 mm 0 W/m2
07:30 12.2 °F /  -11 °C 11.9 °F /  -11.2 °C 1010.0 in /  34198.6 hPa WNW 12.9 mph /  20.8 km/h 35.4 mph /  57 km/h 98 % 0.3 in /  7.62 mm 0 W/m2
07:35 12.2 °F /  -11 °C 11.9 °F /  -11.2 °C 1010.4 in /  34212.1 hPa WNW 20.9 mph /  33.6 km/h 38.6 mph /  62.1 km/h 98 % 0.3 in /  7.62 mm 0 W/m2
07:45 12.2 °F /  -11 °C 11.8 °F /  -11.2 °C 1010.4 in /  34212.1 hPa SW 12.9 mph /  20.8 km/h 32.2 mph /  51.8 km/h 97 % 0.3 in /  7.62 mm 0 W/m2
07:50 12.2 °F /  -11 °C 11.8 °F /  -11.2 °C 1010.4 in /  34212.1 hPa WSW 16.1 mph /  25.9 km/h 32.2 mph /  51.8 km/h 97 % 0.3 in /  7.62 mm 0 W/m2
07:55 12.2 °F /  -11 °C 11.9 °F /  -11.2 °C 1010.0 in /  34198.6 hPa WSW 17.7 mph /  28.5 km/h 37.0 mph /  59.5 km/h 98 % 0.3 in /  7.62 mm 0 W/m2
08:00 12.3 °F /  -10.9 °C 12.0 °F /  -11.1 °C 1010.0 in /  34198.6 hPa SW 25.7 mph /  41.4 km/h 43.4 mph /  69.8 km/h 98 % 0.0 in /  0 mm 0 W/m2
08:05 12.2 °F /  -11 °C 11.8 °F /  -11.2 °C 1010.0 in /  34198.6 hPa WSW 24.1 mph /  38.8 km/h 43.4 mph /  69.8 km/h 97 % 0.0 in /  0 mm 0 W/m2
08:10 12.2 °F /  -11 °C 11.8 °F /  -11.2 °C 1010.0 in /  34198.6 hPa WNW 24.1 mph /  38.8 km/h 40.2 mph /  64.7 km/h 97 % 0.0 in /  0 mm 0 W/m2
08:20 12.2 °F /  -11 °C 11.9 °F /  -11.2 °C 1010.0 in /  34198.6 hPa WSW 11.3 mph /  18.2 km/h 35.4 mph /  57 km/h 98 % 0.0 in /  0 mm 0 W/m2
08:25 12.3 °F /  -10.9 °C 12.0 °F /  -11.1 °C 1010.0 in /  34198.6 hPa West 19.3 mph /  31.1 km/h 33.8 mph /  54.4 km/h 98 % 0.0 in /  0 mm 0 W/m2
08:30 12.3 °F /  -10.9 °C 11.8 °F /  -11.2 °C 1010.0 in /  34198.6 hPa West 12.9 mph /  20.8 km/h 35.4 mph /  57 km/h 97 % 0.0 in /  0 mm 0 W/m2
08:40 12.2 °F /  -11 °C 11.9 °F /  -11.2 °C 1009.7 in /  34188.4 hPa SW 16.1 mph /  25.9 km/h 35.4 mph /  57 km/h 98 % 0.0 in /  0 mm 0 W/m2
08:45 12.2 °F /  -11 °C 11.8 °F /  -11.2 °C 1009.7 in /  34188.4 hPa WNW 12.9 mph /  20.8 km/h 37.0 mph /  59.5 km/h 97 % 0.0 in /  0 mm 0 W/m2
08:55 12.3 °F /  -10.9 °C 12.0 °F /  -11.1 °C 1009.4 in /  34178.3 hPa SW 22.5 mph /  36.2 km/h 37.0 mph /  59.5 km/h 98 % 0.0 in /  0 mm 0 W/m2
09:05 12.3 °F /  -10.9 °C 12.0 °F /  -11.1 °C 1009.7 in /  34188.4 hPa SW 20.9 mph /  33.6 km/h 37.0 mph /  59.5 km/h 98 % 0.0 in /  0 mm 0 W/m2
09:10 12.3 °F /  -10.9 °C 11.9 °F /  -11.2 °C 1009.4 in /  34178.3 hPa West 16.1 mph /  25.9 km/h 37.0 mph /  59.5 km/h 97 % 0.0 in /  0 mm 7 W/m2
09:15 12.3 °F /  -10.9 °C 11.9 °F /  -11.2 °C 1009.4 in /  34178.3 hPa West 20.9 mph /  33.6 km/h 35.4 mph /  57 km/h 97 % 0.0 in /  0 mm 12 W/m2
09:35 12.3 °F /  -10.9 °C 11.9 °F /  -11.2 °C 1009.4 in /  34178.3 hPa SSW 11.3 mph /  18.2 km/h 35.4 mph /  57 km/h 97 % 0.0 in /  0 mm 12 W/m2
09:40 12.3 °F /  -10.9 °C 11.8 °F /  -11.2 °C 1009.4 in /  34178.3 hPa WSW 16.1 mph /  25.9 km/h 35.4 mph /  57 km/h 97 % 0.0 in /  0 mm 9 W/m2
09:45 12.3 °F /  -10.9 °C 11.8 °F /  -11.2 °C 1009.4 in /  34178.3 hPa WNW 19.3 mph /  31.1 km/h 37.0 mph /  59.5 km/h 97 % 0.0 in /  0 mm 11 W/m2
09:50 12.3 °F /  -10.9 °C 11.9 °F /  -11.2 °C 1009.4 in /  34178.3 hPa WNW 11.3 mph /  18.2 km/h 40.2 mph /  64.7 km/h 97 % 0.0 in /  0 mm 12 W/m2
10:00 12.3 °F /  -10.9 °C 11.9 °F /  -11.2 °C 1009.4 in /  34178.3 hPa WSW 24.1 mph /  38.8 km/h 33.8 mph /  54.4 km/h 97 % 0.0 in /  0 mm 12 W/m2
10:05 12.3 °F /  -10.9 °C 11.9 °F /  -11.2 °C 1009.4 in /  34178.3 hPa WSW 33.8 mph /  54.4 km/h 35.4 mph /  57 km/h 97 % 0.3 in /  7.62 mm 16 W/m2
10:10 12.4 °F /  -10.9 °C 11.9 °F /  -11.2 °C 1009.4 in /  34178.3 hPa WSW 16.1 mph /  25.9 km/h 38.6 mph /  62.1 km/h 97 % 0.3 in /  7.62 mm 16 W/m2
10:20 12.4 °F /  -10.9 °C 12.0 °F /  -11.1 °C 1009.4 in /  34178.3 hPa West 6.4 mph /  10.3 km/h 41.8 mph /  67.3 km/h 97 % 0.3 in /  7.62 mm 28 W/m2
10:25 12.4 °F /  -10.9 °C 12.0 °F /  -11.1 °C 1009.4 in /  34178.3 hPa WNW 19.3 mph /  31.1 km/h 38.6 mph /  62.1 km/h 97 % 0.3 in /  7.62 mm 26 W/m2
10:35 12.5 °F /  -10.8 °C 12.0 °F /  -11.1 °C 1009.4 in /  34178.3 hPa West 25.7 mph /  41.4 km/h 46.7 mph /  75.2 km/h 97 % 0.3 in /  7.62 mm 25 W/m2
10:40 12.5 °F /  -10.8 °C 12.0 °F /  -11.1 °C 1009.4 in /  34178.3 hPa West 9.7 mph /  15.6 km/h 46.7 mph /  75.2 km/h 97 % 0.3 in /  7.62 mm 28 W/m2
10:45 12.5 °F /  -10.8 °C 12.0 °F /  -11.1 °C 1009.4 in /  34178.3 hPa WNW 22.5 mph /  36.2 km/h 38.6 mph /  62.1 km/h 97 % 0.3 in /  7.62 mm 25 W/m2
11:00 12.6 °F /  -10.8 °C 12.1 °F /  -11.1 °C 1009.0 in /  34164.7 hPa NW 17.7 mph /  28.5 km/h 33.8 mph /  54.4 km/h 97 % 0.3 in /  7.62 mm 33 W/m2
11:05 12.6 °F /  -10.8 °C 12.1 °F /  -11.1 °C 1009.0 in /  34164.7 hPa WSW 19.3 mph /  31.1 km/h 41.8 mph /  67.3 km/h 97 % 0.0 in /  0 mm 30 W/m2
11:15 12.7 °F /  -10.7 °C 12.2 °F /  -11 °C 1009.0 in /  34164.7 hPa NNW 24.1 mph /  38.8 km/h 45.1 mph /  72.6 km/h 97 % 0.0 in /  0 mm 42 W/m2
11:20 12.7 °F /  -10.7 °C 12.2 °F /  -11 °C 1009.0 in /  34164.7 hPa WNW 32.2 mph /  51.8 km/h 45.1 mph /  72.6 km/h 97 % 0.0 in /  0 mm 51 W/m2
11:25 12.7 °F /  -10.7 °C 12.3 °F /  -10.9 °C 1009.0 in /  34164.7 hPa NW 11.3 mph /  18.2 km/h 38.6 mph /  62.1 km/h 97 % 0.0 in /  0 mm 42 W/m2
11:30 12.7 °F /  -10.7 °C 12.3 °F /  -10.9 °C 1009.0 in /  34164.7 hPa WSW 19.3 mph /  31.1 km/h 38.6 mph /  62.1 km/h 97 % 0.0 in /  0 mm 40 W/m2
11:35 12.7 °F /  -10.7 °C 12.3 °F /  -10.9 °C 1009.0 in /  34164.7 hPa WNW 12.9 mph /  20.8 km/h 37.0 mph /  59.5 km/h 97 % 0.0 in /  0 mm 44 W/m2
11:45 12.8 °F /  -10.7 °C 12.2 °F /  -11 °C 1009.0 in /  34164.7 hPa WSW 17.7 mph /  28.5 km/h 45.1 mph /  72.6 km/h 96 % 0.0 in /  0 mm 33 W/m2
11:50 12.8 °F /  -10.7 °C 12.2 °F /  -11 °C 1009.0 in /  34164.7 hPa WSW 33.8 mph /  54.4 km/h 37.0 mph /  59.5 km/h 96 % 0.0 in /  0 mm 30 W/m2
12:05 12.8 °F /  -10.7 °C 12.2 °F /  -11 °C 1008.7 in /  34154.6 hPa West 14.5 mph /  23.3 km/h 35.4 mph /  57 km/h 96 % 0.0 in /  0 mm 40 W/m2
12:10 12.8 °F /  -10.7 °C 12.2 °F /  -11 °C 1008.7 in /  34154.6 hPa WSW 25.7 mph /  41.4 km/h 38.6 mph /  62.1 km/h 96 % 0.0 in /  0 mm 44 W/m2
12:20 12.9 °F /  -10.6 °C 12.3 °F /  -10.9 °C 1008.7 in /  34154.6 hPa West 14.5 mph /  23.3 km/h 41.8 mph /  67.3 km/h 96 % 0.0 in /  0 mm 67 W/m2
12:35 13.0 °F /  -10.6 °C 12.4 °F /  -10.9 °C 1008.4 in /  34144.4 hPa West 22.5 mph /  36.2 km/h 43.4 mph /  69.8 km/h 96 % 0.0 in /  0 mm 56 W/m2
12:40 13.1 °F /  -10.5 °C 12.3 °F /  -10.9 °C 1008.4 in /  34144.4 hPa SW 14.5 mph /  23.3 km/h 38.6 mph /  62.1 km/h 95 % 0.0 in /  0 mm 62 W/m2
12:45 13.1 °F /  -10.5 °C 12.3 °F /  -10.9 °C 1008.4 in /  34144.4 hPa West 17.7 mph /  28.5 km/h 40.2 mph /  64.7 km/h 95 % 0.0 in /  0 mm 35 W/m2
13:00 13.1 °F /  -10.5 °C 12.3 °F /  -10.9 °C 1008.0 in /  34130.9 hPa SW 11.3 mph /  18.2 km/h 41.8 mph /  67.3 km/h 95 % 0.0 in /  0 mm 49 W/m2
13:05 13.1 °F /  -10.5 °C 12.3 °F /  -10.9 °C 1008.0 in /  34130.9 hPa West 40.2 mph /  64.7 km/h 41.8 mph /  67.3 km/h 95 % 0.0 in /  0 mm 47 W/m2
13:15 13.0 °F /  -10.6 °C 12.1 °F /  -11.1 °C 1008.0 in /  34130.9 hPa West 12.9 mph /  20.8 km/h 46.7 mph /  75.2 km/h 94 % 0.0 in /  0 mm 49 W/m2
13:20 13.0 °F /  -10.6 °C 12.1 °F /  -11.1 °C 1007.7 in /  34120.7 hPa West 25.7 mph /  41.4 km/h 46.7 mph /  75.2 km/h 94 % 0.0 in /  0 mm 54 W/m2
13:25 12.9 °F /  -10.6 °C 12.0 °F /  -11.1 °C 1007.7 in /  34120.7 hPa WSW 24.1 mph /  38.8 km/h 45.1 mph /  72.6 km/h 94 % 0.0 in /  0 mm 51 W/m2
13:30 12.9 °F /  -10.6 °C 12.0 °F /  -11.1 °C 1007.3 in /  34107.2 hPa West 19.3 mph /  31.1 km/h 38.6 mph /  62.1 km/h 94 % 0.0 in /  0 mm 46 W/m2
13:35 13.0 °F /  -10.6 °C 12.1 °F /  -11.1 °C 1007.7 in /  34120.7 hPa WSW 22.5 mph /  36.2 km/h 41.8 mph /  67.3 km/h 94 % 0.0 in /  0 mm 35 W/m2
13:40 12.9 °F /  -10.6 °C 12.0 °F /  -11.1 °C 1007.7 in /  34120.7 hPa West 17.7 mph /  28.5 km/h 43.4 mph /  69.8 km/h 94 % 0.0 in /  0 mm 37 W/m2
13:45 12.9 °F /  -10.6 °C 12.0 °F /  -11.1 °C 1007.7 in /  34120.7 hPa West 20.9 mph /  33.6 km/h 43.4 mph /  69.8 km/h 94 % 0.0 in /  0 mm 37 W/m2
13:50 12.9 °F /  -10.6 °C 12.0 °F /  -11.1 °C 1007.3 in /  34107.2 hPa West 19.3 mph /  31.1 km/h 37.0 mph /  59.5 km/h 94 % 0.0 in /  0 mm 49 W/m2
13:55 12.9 °F /  -10.6 °C 12.0 °F /  -11.1 °C 1007.3 in /  34107.2 hPa WNW 14.5 mph /  23.3 km/h 46.7 mph /  75.2 km/h 94 % 0.0 in /  0 mm 42 W/m2
14:00 12.9 °F /  -10.6 °C 12.0 °F /  -11.1 °C 1007.3 in /  34107.2 hPa WSW 30.6 mph /  49.2 km/h 46.7 mph /  75.2 km/h 94 % 0.0 in /  0 mm 39 W/m2
14:05 12.9 °F /  -10.6 °C 12.1 °F /  -11.1 °C 1007.3 in /  34107.2 hPa SW 19.3 mph /  31.1 km/h 43.4 mph /  69.8 km/h 95 % 0.0 in /  0 mm 39 W/m2
14:10 12.9 °F /  -10.6 °C 12.1 °F /  -11.1 °C 1007.0 in /  34097 hPa WSW 35.4 mph /  57 km/h 40.2 mph /  64.7 km/h 95 % 0.0 in /  0 mm 32 W/m2
14:15 12.9 °F /  -10.6 °C 12.1 °F /  -11.1 °C 1007.0 in /  34097 hPa WSW 27.4 mph /  44.1 km/h 40.2 mph /  64.7 km/h 95 % 0.0 in /  0 mm 37 W/m2
14:20 12.8 °F /  -10.7 °C 12.1 °F /  -11.1 °C 1007.0 in /  34097 hPa WSW 12.9 mph /  20.8 km/h 46.7 mph /  75.2 km/h 95 % 0.0 in /  0 mm 37 W/m2
14:25 12.8 °F /  -10.7 °C 12.1 °F /  -11.1 °C 1007.0 in /  34097 hPa SW 16.1 mph /  25.9 km/h 46.7 mph /  75.2 km/h 95 % 0.5 in /  12.7 mm 37 W/m2
14:30 12.8 °F /  -10.7 °C 12.0 °F /  -11.1 °C 1007.0 in /  34097 hPa NW 20.9 mph /  33.6 km/h 43.4 mph /  69.8 km/h 95 % 0.5 in /  12.7 mm 25 W/m2
14:35 12.7 °F /  -10.7 °C 11.9 °F /  -11.2 °C 1007.3 in /  34107.2 hPa WNW 12.9 mph /  20.8 km/h 43.4 mph /  69.8 km/h 95 % 0.5 in /  12.7 mm 9 W/m2
14:45 11.9 °F /  -11.2 °C 11.0 °F /  -11.7 °C 1007.3 in /  34107.2 hPa WNW 14.5 mph /  23.3 km/h 37.0 mph /  59.5 km/h 94 % 1.5 in /  38.1 mm 23 W/m2
14:50 11.6 °F /  -11.3 °C 10.6 °F /  -11.9 °C 1007.3 in /  34107.2 hPa WNW 8.0 mph /  12.9 km/h 35.4 mph /  57 km/h 94 % 1.5 in /  38.1 mm 44 W/m2
15:00 11.2 °F /  -11.6 °C 10.3 °F /  -12.1 °C 1007.3 in /  34107.2 hPa WNW 8.0 mph /  12.9 km/h 22.5 mph /  36.2 km/h 94 % 1.5 in /  38.1 mm 47 W/m2
15:05 11.1 °F /  -11.6 °C 10.3 °F /  -12.1 °C 1007.3 in /  34107.2 hPa NW 11.3 mph /  18.2 km/h 29.0 mph /  46.7 km/h 95 % 1.5 in /  38.1 mm 44 W/m2
15:10 11.1 °F /  -11.6 °C 10.3 °F /  -12.1 °C 1007.3 in /  34107.2 hPa WNW 9.7 mph /  15.6 km/h 32.2 mph /  51.8 km/h 95 % 1.5 in /  38.1 mm 39 W/m2
15:15 11.0 °F /  -11.7 °C 10.2 °F /  -12.1 °C 1007.3 in /  34107.2 hPa WNW 12.9 mph /  20.8 km/h 32.2 mph /  51.8 km/h 95 % 1.5 in /  38.1 mm 35 W/m2
15:20 10.9 °F /  -11.7 °C 10.2 °F /  -12.1 °C 1007.3 in /  34107.2 hPa West 14.5 mph /  23.3 km/h 27.4 mph /  44.1 km/h 95 % 1.5 in /  38.1 mm 51 W/m2
15:30 10.8 °F /  -11.8 °C 10.1 °F /  -12.2 °C 1007.3 in /  34107.2 hPa West 19.3 mph /  31.1 km/h 24.1 mph /  38.8 km/h 95 % 1.5 in /  38.1 mm 47 W/m2
15:35 10.8 °F /  -11.8 °C 10.1 °F /  -12.2 °C 1007.3 in /  34107.2 hPa West 17.7 mph /  28.5 km/h 24.1 mph /  38.8 km/h 95 % 1.3 in /  33.02 mm 56 W/m2
15:40 10.8 °F /  -11.8 °C 10.1 °F /  -12.2 °C 1007.3 in /  34107.2 hPa WNW 8.0 mph /  12.9 km/h 22.5 mph /  36.2 km/h 95 % 0.5 in /  12.7 mm 49 W/m2
15:45 10.8 °F /  -11.8 °C 10.1 °F /  -12.2 °C 1007.3 in /  34107.2 hPa NW 3.2 mph /  5.1 km/h 27.4 mph /  44.1 km/h 95 % 0.5 in /  12.7 mm 54 W/m2
15:50 10.8 °F /  -11.8 °C 10.0 °F /  -12.2 °C 1007.3 in /  34107.2 hPa West 8.0 mph /  12.9 km/h 27.4 mph /  44.1 km/h 95 % 0.5 in /  12.7 mm 46 W/m2
16:00 10.8 °F /  -11.8 °C 10.0 °F /  -12.2 °C 1007.3 in /  34107.2 hPa NW 8.0 mph /  12.9 km/h 22.5 mph /  36.2 km/h 95 % 0.5 in /  12.7 mm 37 W/m2
16:05 10.8 °F /  -11.8 °C 10.0 °F /  -12.2 °C 1007.3 in /  34107.2 hPa West 6.4 mph /  10.3 km/h 22.5 mph /  36.2 km/h 95 % 0.3 in /  7.62 mm 39 W/m2
16:15 10.8 °F /  -11.8 °C 10.2 °F /  -12.1 °C 1007.3 in /  34107.2 hPa WNW 4.8 mph /  7.7 km/h 22.5 mph /  36.2 km/h 96 % 0.3 in /  7.62 mm 35 W/m2
16:20 10.7 °F /  -11.8 °C 10.1 °F /  -12.2 °C 1007.3 in /  34107.2 hPa West 11.3 mph /  18.2 km/h 19.3 mph /  31.1 km/h 96 % 0.3 in /  7.62 mm 23 W/m2
16:25 10.7 °F /  -11.8 °C 10.1 °F /  -12.2 °C 1007.3 in /  34107.2 hPa West 9.7 mph /  15.6 km/h 19.3 mph /  31.1 km/h 96 % 0.0 in /  0 mm 28 W/m2
16:40 10.7 °F /  -11.8 °C 10.1 °F /  -12.2 °C 1007.3 in /  34107.2 hPa West 9.7 mph /  15.6 km/h 25.7 mph /  41.4 km/h 96 % 0.3 in /  7.62 mm 23 W/m2
16:55 10.6 °F /  -11.9 °C 10.0 °F /  -12.2 °C 1007.3 in /  34107.2 hPa West 4.8 mph /  7.7 km/h 20.9 mph /  33.6 km/h 96 % 0.3 in /  7.62 mm 25 W/m2
17:00 10.6 °F /  -11.9 °C 9.9 °F /  -12.3 °C 1007.3 in /  34107.2 hPa West 8.0 mph /  12.9 km/h 20.9 mph /  33.6 km/h 96 % 0.3 in /  7.62 mm 19 W/m2
17:05 10.6 °F /  -11.9 °C 9.9 °F /  -12.3 °C 1007.7 in /  34120.7 hPa West 4.8 mph /  7.7 km/h 20.9 mph /  33.6 km/h 96 % 0.3 in /  7.62 mm 23 W/m2
17:10 10.4 °F /  -12 °C 9.8 °F /  -12.3 °C 1007.7 in /  34120.7 hPa WNW 8.0 mph /  12.9 km/h 17.7 mph /  28.5 km/h 96 % 0.3 in /  7.62 mm 19 W/m2
17:15 10.3 °F /  -12.1 °C 9.7 °F /  -12.4 °C 1007.7 in /  34120.7 hPa WNW 9.7 mph /  15.6 km/h 17.7 mph /  28.5 km/h 96 % 0.3 in /  7.62 mm 14 W/m2
17:30 10.2 °F /  -12.1 °C 9.6 °F /  -12.4 °C 1007.3 in /  34107.2 hPa WSW 9.7 mph /  15.6 km/h 16.1 mph /  25.9 km/h 96 % 0.0 in /  0 mm 5 W/m2
17:35 10.2 °F /  -12.1 °C 9.6 °F /  -12.4 °C 1007.7 in /  34120.7 hPa WSW 11.3 mph /  18.2 km/h 16.1 mph /  25.9 km/h 96 % 0.0 in /  0 mm 0 W/m2
17:50 10.2 °F /  -12.1 °C 9.6 °F /  -12.4 °C 1008.0 in /  34130.9 hPa WSW 3.2 mph /  5.1 km/h 19.3 mph /  31.1 km/h 96 % 0.0 in /  0 mm 0 W/m2
18:00 10.3 °F /  -12.1 °C 9.7 °F /  -12.4 °C 1008.4 in /  34144.4 hPa WSW 14.5 mph /  23.3 km/h 20.9 mph /  33.6 km/h 96 % 0.0 in /  0 mm 0 W/m2
18:25 10.4 °F /  -12 °C 10.0 °F /  -12.2 °C 1008.0 in /  34130.9 hPa West 6.4 mph /  10.3 km/h 20.9 mph /  33.6 km/h 97 % 0.0 in /  0 mm 0 W/m2
18:35 10.4 °F /  -12 °C 9.8 °F /  -12.3 °C 1008.0 in /  34130.9 hPa WSW 9.7 mph /  15.6 km/h 19.3 mph /  31.1 km/h 96 % 0.0 in /  0 mm 0 W/m2
18:40 10.4 °F /  -12 °C 9.8 °F /  -12.3 °C 1008.0 in /  34130.9 hPa WNW 8.0 mph /  12.9 km/h 22.5 mph /  36.2 km/h 96 % 0.0 in /  0 mm 0 W/m2
18:50 10.3 °F /  -12.1 °C 9.9 °F /  -12.3 °C 1008.0 in /  34130.9 hPa West 6.4 mph /  10.3 km/h 24.1 mph /  38.8 km/h 97 % 0.0 in /  0 mm 0 W/m2
18:55 10.3 °F /  -12.1 °C 9.9 °F /  -12.3 °C 1008.0 in /  34130.9 hPa WNW 9.7 mph /  15.6 km/h 24.1 mph /  38.8 km/h 97 % 0.0 in /  0 mm 0 W/m2
19:05 10.3 °F /  -12.1 °C 9.9 °F /  -12.3 °C 1008.0 in /  34130.9 hPa West 11.3 mph /  18.2 km/h 16.1 mph /  25.9 km/h 97 % 0.0 in /  0 mm 0 W/m2
19:10 10.4 °F /  -12 °C 9.9 °F /  -12.3 °C 1008.0 in /  34130.9 hPa WSW 3.2 mph /  5.1 km/h 17.7 mph /  28.5 km/h 97 % 0.0 in /  0 mm 0 W/m2
19:20 10.6 °F /  -11.9 °C 10.1 °F /  -12.2 °C 1008.0 in /  34130.9 hPa WSW 12.9 mph /  20.8 km/h 19.3 mph /  31.1 km/h 97 % 0.0 in /  0 mm 0 W/m2
19:25 10.6 °F /  -11.9 °C 10.1 °F /  -12.2 °C 1008.0 in /  34130.9 hPa WSW 17.7 mph /  28.5 km/h 19.3 mph /  31.1 km/h 97 % 0.0 in /  0 mm 0 W/m2
19:30 10.7 °F /  -11.8 °C 10.2 °F /  -12.1 °C 1008.0 in /  34130.9 hPa SW 12.9 mph /  20.8 km/h 19.3 mph /  31.1 km/h 97 % 0.0 in /  0 mm 0 W/m2
19:35 10.7 °F /  -11.8 °C 10.2 °F /  -12.1 °C 1008.0 in /  34130.9 hPa West 8.0 mph /  12.9 km/h 24.1 mph /  38.8 km/h 97 % 0.0 in /  0 mm 0 W/m2
19:45 10.8 °F /  -11.8 °C 10.3 °F /  -12.1 °C 1008.0 in /  34130.9 hPa WSW 8.0 mph /  12.9 km/h 27.4 mph /  44.1 km/h 97 % 0.0 in /  0 mm 0 W/m2
20:00 10.8 °F /  -11.8 °C 10.4 °F /  -12 °C 1007.7 in /  34120.7 hPa WSW 11.3 mph /  18.2 km/h 20.9 mph /  33.6 km/h 97 % 0.0 in /  0 mm 0 W/m2
20:05 10.8 °F /  -11.8 °C 10.4 °F /  -12 °C 1008.0 in /  34130.9 hPa WNW 6.4 mph /  10.3 km/h 22.5 mph /  36.2 km/h 97 % 0.0 in /  0 mm 0 W/m2
20:10 10.8 °F /  -11.8 °C 10.4 °F /  -12 °C 1007.7 in /  34120.7 hPa West 9.7 mph /  15.6 km/h 22.5 mph /  36.2 km/h 97 % 0.0 in /  0 mm 0 W/m2
20:25 10.8 °F /  -11.8 °C 10.4 °F /  -12 °C 1007.7 in /  34120.7 hPa West 6.4 mph /  10.3 km/h 20.9 mph /  33.6 km/h 97 % 0.0 in /  0 mm 0 W/m2
20:30 10.8 °F /  -11.8 °C 10.4 °F /  -12 °C 1007.7 in /  34120.7 hPa SW 11.3 mph /  18.2 km/h 20.9 mph /  33.6 km/h 97 % 0.0 in /  0 mm 0 W/m2
20:45 10.8 °F /  -11.8 °C 10.4 °F /  -12 °C 1007.3 in /  34107.2 hPa WSW 6.4 mph /  10.3 km/h 20.9 mph /  33.6 km/h 97 % 0.0 in /  0 mm 0 W/m2
20:50 10.8 °F /  -11.8 °C 10.4 °F /  -12 °C 1007.3 in /  34107.2 hPa WSW 9.7 mph /  15.6 km/h 20.9 mph /  33.6 km/h 97 % 0.0 in /  0 mm 0 W/m2
20:55 10.8 °F /  -11.8 °C 10.4 °F /  -12 °C 1007.3 in /  34107.2 hPa SW 6.4 mph /  10.3 km/h 22.5 mph /  36.2 km/h 97 % 0.0 in /  0 mm 0 W/m2
21:10 10.7 °F /  -11.8 °C 10.3 °F /  -12.1 °C 1007.3 in /  34107.2 hPa WSW 6.4 mph /  10.3 km/h 20.9 mph /  33.6 km/h 97 % 0.0 in /  0 mm 0 W/m2
21:20 10.8 °F /  -11.8 °C 10.3 °F /  -12.1 °C 1007.3 in /  34107.2 hPa SSW 4.8 mph /  7.7 km/h 19.3 mph /  31.1 km/h 97 % 0.0 in /  0 mm 0 W/m2
21:25 10.8 °F /  -11.8 °C 10.3 °F /  -12.1 °C 1007.3 in /  34107.2 hPa SW 1.6 mph /  2.6 km/h 19.3 mph /  31.1 km/h 97 % 0.0 in /  0 mm 0 W/m2
21:40 10.8 °F /  -11.8 °C 10.3 °F /  -12.1 °C 1007.0 in /  34097 hPa SW 3.2 mph /  5.1 km/h 14.5 mph /  23.3 km/h 97 % 0.0 in /  0 mm 0 W/m2
21:45 10.7 °F /  -11.8 °C 10.3 °F /  -12.1 °C 1006.7 in /  34086.9 hPa WSW 6.4 mph /  10.3 km/h 22.5 mph /  36.2 km/h 97 % 0.0 in /  0 mm 0 W/m2
21:50 10.7 °F /  -11.8 °C 10.3 °F /  -12.1 °C 1006.7 in /  34086.9 hPa WSW 16.1 mph /  25.9 km/h 22.5 mph /  36.2 km/h 97 % 0.0 in /  0 mm 0 W/m2
21:55 10.8 °F /  -11.8 °C 10.3 °F /  -12.1 °C 1006.7 in /  34086.9 hPa WSW 14.5 mph /  23.3 km/h 20.9 mph /  33.6 km/h 97 % 0.0 in /  0 mm 0 W/m2
22:45 10.9 °F /  -11.7 °C 10.5 °F /  -11.9 °C 1006.3 in /  34073.3 hPa West 8.0 mph /  12.9 km/h 25.7 mph /  41.4 km/h 97 % 0.0 in /  0 mm 0 W/m2
23:15 11.0 °F /  -11.7 °C 10.5 °F /  -11.9 °C 1005.6 in /  34049.6 hPa SW 9.7 mph /  15.6 km/h 25.7 mph /  41.4 km/h 97 % 0.0 in /  0 mm 0 W/m2
23:20 11.0 °F /  -11.7 °C 10.5 °F /  -11.9 °C 1005.6 in /  34049.6 hPa WSW 9.7 mph /  15.6 km/h 25.7 mph /  41.4 km/h 97 % 0.0 in /  0 mm 0 W/m2
23:35 11.1 °F /  -11.6 °C 10.6 °F /  -11.9 °C 1005.3 in /  34039.5 hPa SSW 8.0 mph /  12.9 km/h 29.0 mph /  46.7 km/h 97 % 0.0 in /  0 mm 0 W/m2
23:40 11.1 °F /  -11.6 °C 10.7 °F /  -11.8 °C 1005.3 in /  34039.5 hPa WSW 4.8 mph /  7.7 km/h 25.7 mph /  41.4 km/h 97 % 0.0 in /  0 mm 0 W/m2
23:45 11.1 °F /  -11.6 °C 10.7 °F /  -11.8 °C 1005.3 in /  34039.5 hPa WSW 12.9 mph /  20.8 km/h 25.7 mph /  41.4 km/h 97 % 0.0 in /  0 mm 0 W/m2
Avec l'autorisation de Weather Underground - 1.5 mb